Wildwood, Wisconsin
Current Conditions -  °F | °C
As of 6:15 PM on Sunday 23 Nov 2014 (Local Time) from KRNH Reporting Station
Drizzle Drizzle  
Wind Chill: 32°   Ceiling: 3900
Heat Index: 37°   Visibility: 5mi
Dew Point: 37°   Wind: 6mph
Humidity: 100%   Direction: 310°NW
Pressure: 29.37"   Gusts: NA
Location:  44.9511°N, 92.2794°W
Report Text: KRNH 240015Z AUTO 31005KT 5SM -DZ OVC039 03/03 A2937 RMK AO2 T00270027
Loading
Personal Weather Stations






























Interactive Weather Map New forecast layout! Learn more

10-Day Weather Forecast

Advertisements
Track Severe Weather on mobile